sensor_id;sensor_type;location;lat;lon;timestamp;temperature;humidity
21417;DHT22;10869;52.238;10.716;2024-03-25T00:00:03;4.70;99.90
21417;DHT22;10869;52.238;10.716;2024-03-25T00:02:30;4.70;99.90
21417;DHT22;10869;52.238;10.716;2024-03-25T00:04:58;4.60;99.90
21417;DHT22;10869;52.238;10.716;2024-03-25T00:07:24;4.60;99.90
21417;DHT22;10869;52.238;10.716;2024-03-25T00:09:50;4.70;99.90
21417;DHT22;10869;52.238;10.716;2024-03-25T00:12:15;4.60;99.90
21417;DHT22;10869;52.238;10.716;2024-03-25T00:14:41;4.70;99.90
21417;DHT22;10869;52.238;10.716;2024-03-25T00:17:07;4.70;99.90
21417;DHT22;10869;52.238;10.716;2024-03-25T00:19:36;4.60;99.90
21417;DHT22;10869;52.238;10.716;2024-03-25T00:22:03;4.70;99.90
21417;DHT22;10869;52.238;10.716;2024-03-25T00:24:29;4.70;99.90
21417;DHT22;10869;52.238;10.716;2024-03-25T00:26:55;4.70;99.90
21417;DHT22;10869;52.238;10.716;2024-03-25T00:29:21;4.70;99.90
21417;DHT22;10869;52.238;10.716;2024-03-25T00:31:47;4.70;99.90
21417;DHT22;10869;52.238;10.716;2024-03-25T00:34:12;4.60;99.90
21417;DHT22;10869;52.238;10.716;2024-03-25T00:36:38;4.60;99.90
21417;DHT22;10869;52.238;10.716;2024-03-25T00:39:04;4.60;99.90
21417;DHT22;10869;52.238;10.716;2024-03-25T00:41:33;4.60;99.90
21417;DHT22;10869;52.238;10.716;2024-03-25T00:46:34;4.60;99.90
21417;DHT22;10869;52.238;10.716;2024-03-25T00:49:00;4.50;99.90
21417;DHT22;10869;52.238;10.716;2024-03-25T00:51:26;4.50;99.90
21417;DHT22;10869;52.238;10.716;2024-03-25T00:53:51;4.50;99.90
21417;DHT22;10869;52.238;10.716;2024-03-25T00:56:17;4.40;99.90
21417;DHT22;10869;52.238;10.716;2024-03-25T00:58:43;4.50;99.90
21417;DHT22;10869;52.238;10.716;2024-03-25T01:01:10;4.50;99.90
21417;DHT22;10869;52.238;10.716;2024-03-25T01:03:37;4.50;99.90
21417;DHT22;10869;52.238;10.716;2024-03-25T01:06:03;4.40;99.90
21417;DHT22;10869;52.238;10.716;2024-03-25T01:08:29;4.50;99.90
21417;DHT22;10869;52.238;10.716;2024-03-25T01:14:17;4.40;99.90
21417;DHT22;10869;52.238;10.716;2024-03-25T01:16:43;4.40;99.90
21417;DHT22;10869;52.238;10.716;2024-03-25T01:19:09;4.40;99.90
21417;DHT22;10869;52.238;10.716;2024-03-25T01:21:35;4.40;99.90
21417;DHT22;10869;52.238;10.716;2024-03-25T01:24:01;4.50;99.90
21417;DHT22;10869;52.238;10.716;2024-03-25T01:26:27;4.50;99.90
21417;DHT22;10869;52.238;10.716;2024-03-25T01:28:54;4.50;99.90
21417;DHT22;10869;52.238;10.716;2024-03-25T01:31:19;4.50;99.90
21417;DHT22;10869;52.238;10.716;2024-03-25T01:33:45;4.50;99.90
21417;DHT22;10869;52.238;10.716;2024-03-25T01:36:11;4.50;99.90
21417;DHT22;10869;52.238;10.716;2024-03-25T01:38:45;4.50;99.90
21417;DHT22;10869;52.238;10.716;2024-03-25T01:41:12;4.50;99.90
21417;DHT22;10869;52.238;10.716;2024-03-25T01:43:40;4.50;99.90
21417;DHT22;10869;52.238;10.716;2024-03-25T01:46:07;4.40;99.90
21417;DHT22;10869;52.238;10.716;2024-03-25T01:48:33;4.40;99.90
21417;DHT22;10869;52.238;10.716;2024-03-25T01:51:00;4.40;99.90
21417;DHT22;10869;52.238;10.716;2024-03-25T01:53:29;4.40;99.90
21417;DHT22;10869;52.238;10.716;2024-03-25T01:55:55;4.50;99.90
21417;DHT22;10869;52.238;10.716;2024-03-25T01:58:22;4.40;99.90
21417;DHT22;10869;52.238;10.716;2024-03-25T02:00:50;4.40;99.90
21417;DHT22;10869;52.238;10.716;2024-03-25T02:03:16;4.40;99.90
21417;DHT22;10869;52.238;10.716;2024-03-25T02:05:43;4.40;99.90
21417;DHT22;10869;52.238;10.716;2024-03-25T02:08:09;4.40;99.90
21417;DHT22;10869;52.238;10.716;2024-03-25T02:10:36;4.40;99.90
21417;DHT22;10869;52.238;10.716;2024-03-25T02:13:03;4.40;99.90
21417;DHT22;10869;52.238;10.716;2024-03-25T02:15:29;4.40;99.90
21417;DHT22;10869;52.238;10.716;2024-03-25T02:17:55;4.40;99.90
21417;DHT22;10869;52.238;10.716;2024-03-25T02:20:21;4.40;99.90
21417;DHT22;10869;52.238;10.716;2024-03-25T02:22:47;4.40;99.90
21417;DHT22;10869;52.238;10.716;2024-03-25T02:25:14;4.40;99.90
21417;DHT22;10869;52.238;10.716;2024-03-25T02:27:41;4.40;99.90
21417;DHT22;10869;52.238;10.716;2024-03-25T02:30:09;4.40;99.90
21417;DHT22;10869;52.238;10.716;2024-03-25T02:32:38;4.40;99.90
21417;DHT22;10869;52.238;10.716;2024-03-25T02:35:06;4.40;99.90
21417;DHT22;10869;52.238;10.716;2024-03-25T02:37:39;4.40;99.90
21417;DHT22;10869;52.238;10.716;2024-03-25T02:40:06;4.40;99.90
21417;DHT22;10869;52.238;10.716;2024-03-25T02:42:33;4.40;99.90
21417;DHT22;10869;52.238;10.716;2024-03-25T02:44:59;4.40;99.90
21417;DHT22;10869;52.238;10.716;2024-03-25T02:47:25;4.40;99.90
21417;DHT22;10869;52.238;10.716;2024-03-25T02:49:51;4.40;99.90
21417;DHT22;10869;52.238;10.716;2024-03-25T02:52:18;4.40;99.90
21417;DHT22;10869;52.238;10.716;2024-03-25T02:54:44;4.40;99.90
21417;DHT22;10869;52.238;10.716;2024-03-25T02:57:10;4.40;99.90
21417;DHT22;10869;52.238;10.716;2024-03-25T02:59:36;4.50;99.90
21417;DHT22;10869;52.238;10.716;2024-03-25T03:02:02;4.40;99.90
21417;DHT22;10869;52.238;10.716;2024-03-25T03:04:28;4.40;99.90
21417;DHT22;10869;52.238;10.716;2024-03-25T03:06:54;4.40;99.90
21417;DHT22;10869;52.238;10.716;2024-03-25T03:09:20;4.40;99.90
21417;DHT22;10869;52.238;10.716;2024-03-25T03:11:45;4.40;99.90
21417;DHT22;10869;52.238;10.716;2024-03-25T03:14:11;4.40;99.90
21417;DHT22;10869;52.238;10.716;2024-03-25T03:16:37;4.40;99.90
21417;DHT22;10869;52.238;10.716;2024-03-25T03:19:03;4.40;99.90
21417;DHT22;10869;52.238;10.716;2024-03-25T03:21:29;4.40;99.90
21417;DHT22;10869;52.238;10.716;2024-03-25T03:23:57;4.40;99.90
21417;DHT22;10869;52.238;10.716;2024-03-25T03:26:23;4.40;99.90
21417;DHT22;10869;52.238;10.716;2024-03-25T03:28:53;4.30;99.90
21417;DHT22;10869;52.238;10.716;2024-03-25T03:31:21;4.30;99.90
21417;DHT22;10869;52.238;10.716;2024-03-25T03:33:49;4.40;99.90
21417;DHT22;10869;52.238;10.716;2024-03-25T03:36:24;4.40;99.90
21417;DHT22;10869;52.238;10.716;2024-03-25T03:44:50;4.40;99.90
21417;DHT22;10869;52.238;10.716;2024-03-25T03:47:23;4.40;99.90
21417;DHT22;10869;52.238;10.716;2024-03-25T03:50:17;4.40;99.90
21417;DHT22;10869;52.238;10.716;2024-03-25T04:31:39;4.40;99.90
21417;DHT22;10869;52.238;10.716;2024-03-25T04:34:05;4.30;99.90
21417;DHT22;10869;52.238;10.716;2024-03-25T04:36:31;4.30;99.90
21417;DHT22;10869;52.238;10.716;2024-03-25T04:38:57;4.40;99.90
21417;DHT22;10869;52.238;10.716;2024-03-25T04:41:23;4.30;99.90
21417;DHT22;10869;52.238;10.716;2024-03-25T04:43:49;4.30;99.90
21417;DHT22;10869;52.238;10.716;2024-03-25T04:46:15;4.30;99.90
21417;DHT22;10869;52.238;10.716;2024-03-25T04:48:41;4.40;99.90
21417;DHT22;10869;52.238;10.716;2024-03-25T04:51:06;4.30;99.90
21417;DHT22;10869;52.238;10.716;2024-03-25T04:53:34;4.30;99.90
21417;DHT22;10869;52.238;10.716;2024-03-25T04:56:00;4.30;99.90
21417;DHT22;10869;52.238;10.716;2024-03-25T04:58:26;4.30;99.90
21417;DHT22;10869;52.238;10.716;2024-03-25T05:00:52;4.30;99.90
21417;DHT22;10869;52.238;10.716;2024-03-25T05:03:18;4.30;99.90
21417;DHT22;10869;52.238;10.716;2024-03-25T05:05:44;4.30;99.90
21417;DHT22;10869;52.238;10.716;2024-03-25T05:08:10;4.30;99.90
21417;DHT22;10869;52.238;10.716;2024-03-25T05:10:35;4.30;99.90
21417;DHT22;10869;52.238;10.716;2024-03-25T05:13:01;4.30;99.90
21417;DHT22;10869;52.238;10.716;2024-03-25T05:15:27;4.30;99.90
21417;DHT22;10869;52.238;10.716;2024-03-25T05:17:53;4.30;99.90
21417;DHT22;10869;52.238;10.716;2024-03-25T05:20:18;4.20;99.90
21417;DHT22;10869;52.238;10.716;2024-03-25T05:22:44;4.20;99.90
21417;DHT22;10869;52.238;10.716;2024-03-25T05:25:10;4.20;99.90
21417;DHT22;10869;52.238;10.716;2024-03-25T05:27:36;4.20;99.90
21417;DHT22;10869;52.238;10.716;2024-03-25T05:30:02;4.20;99.90
21417;DHT22;10869;52.238;10.716;2024-03-25T05:32:27;4.20;99.90
21417;DHT22;10869;52.238;10.716;2024-03-25T05:34:53;4.30;99.90
21417;DHT22;10869;52.238;10.716;2024-03-25T05:37:19;4.30;99.90
21417;DHT22;10869;52.238;10.716;2024-03-25T05:39:45;4.30;99.90
21417;DHT22;10869;52.238;10.716;2024-03-25T05:42:11;4.30;99.90
21417;DHT22;10869;52.238;10.716;2024-03-25T05:44:36;4.30;99.90
21417;DHT22;10869;52.238;10.716;2024-03-25T05:47:02;4.30;99.90
21417;DHT22;10869;52.238;10.716;2024-03-25T05:49:28;4.30;99.90
21417;DHT22;10869;52.238;10.716;2024-03-25T05:51:54;4.30;99.90
21417;DHT22;10869;52.238;10.716;2024-03-25T05:57:42;4.30;99.90
21417;DHT22;10869;52.238;10.716;2024-03-25T06:00:08;4.30;99.90
21417;DHT22;10869;52.238;10.716;2024-03-25T06:02:37;4.30;99.90
21417;DHT22;10869;52.238;10.716;2024-03-25T06:05:03;4.30;99.90
21417;DHT22;10869;52.238;10.716;2024-03-25T06:07:30;4.40;99.90
21417;DHT22;10869;52.238;10.716;2024-03-25T06:09:56;4.50;99.90
21417;DHT22;10869;52.238;10.716;2024-03-25T06:12:22;4.60;99.90
21417;DHT22;10869;52.238;10.716;2024-03-25T06:14:48;4.70;99.90
21417;DHT22;10869;52.238;10.716;2024-03-25T06:17:14;4.80;99.90
21417;DHT22;10869;52.238;10.716;2024-03-25T06:28:17;4.90;99.90
21417;DHT22;10869;52.238;10.716;2024-03-25T06:30:44;4.90;99.90
21417;DHT22;10869;52.238;10.716;2024-03-25T06:33:29;4.90;99.90
21417;DHT22;10869;52.238;10.716;2024-03-25T06:36:13;4.80;99.90
21417;DHT22;10869;52.238;10.716;2024-03-25T06:38:39;4.80;99.90
21417;DHT22;10869;52.238;10.716;2024-03-25T06:41:05;4.90;99.90
21417;DHT22;10869;52.238;10.716;2024-03-25T06:43:31;4.90;99.90
21417;DHT22;10869;52.238;10.716;2024-03-25T06:45:57;4.90;99.90
21417;DHT22;10869;52.238;10.716;2024-03-25T06:54:20;4.90;99.90
21417;DHT22;10869;52.238;10.716;2024-03-25T07:07:08;5.10;99.90
21417;DHT22;10869;52.238;10.716;2024-03-25T07:12:57;5.30;99.90
21417;DHT22;10869;52.238;10.716;2024-03-25T07:15:24;5.40;99.90
21417;DHT22;10869;52.238;10.716;2024-03-25T07:17:56;5.40;99.90
21417;DHT22;10869;52.238;10.716;2024-03-25T07:23:36;5.50;99.90
21417;DHT22;10869;52.238;10.716;2024-03-25T07:26:04;5.60;99.90
21417;DHT22;10869;52.238;10.716;2024-03-25T07:28:30;5.80;99.90
21417;DHT22;10869;52.238;10.716;2024-03-25T07:30:56;5.90;99.90
21417;DHT22;10869;52.238;10.716;2024-03-25T07:33:24;6.00;99.90
21417;DHT22;10869;52.238;10.716;2024-03-25T07:35:51;6.00;99.90
21417;DHT22;10869;52.238;10.716;2024-03-25T07:38:17;6.10;99.90
21417;DHT22;10869;52.238;10.716;2024-03-25T07:40:43;6.10;99.90
21417;DHT22;10869;52.238;10.716;2024-03-25T07:43:09;6.10;99.90
21417;DHT22;10869;52.238;10.716;2024-03-25T07:45:38;6.30;99.90
21417;DHT22;10869;52.238;10.716;2024-03-25T07:48:05;6.40;99.90
21417;DHT22;10869;52.238;10.716;2024-03-25T07:50:33;6.40;99.90
21417;DHT22;10869;52.238;10.716;2024-03-25T07:52:59;6.30;99.90
21417;DHT22;10869;52.238;10.716;2024-03-25T07:58:49;6.20;99.90
21417;DHT22;10869;52.238;10.716;2024-03-25T08:01:18;6.20;99.90
21417;DHT22;10869;52.238;10.716;2024-03-25T08:03:44;6.30;99.90
21417;DHT22;10869;52.238;10.716;2024-03-25T08:06:12;6.30;99.90
21417;DHT22;10869;52.238;10.716;2024-03-25T08:08:38;6.40;99.90
21417;DHT22;10869;52.238;10.716;2024-03-25T08:11:04;6.40;99.90
21417;DHT22;10869;52.238;10.716;2024-03-25T08:13:32;6.50;99.90
21417;DHT22;10869;52.238;10.716;2024-03-25T08:26:37;6.50;99.90
21417;DHT22;10869;52.238;10.716;2024-03-25T08:29:03;6.60;99.90
21417;DHT22;10869;52.238;10.716;2024-03-25T08:31:29;6.60;99.90
21417;DHT22;10869;52.238;10.716;2024-03-25T08:36:47;6.90;99.90
21417;DHT22;10869;52.238;10.716;2024-03-25T08:42:02;7.30;99.90
21417;DHT22;10869;52.238;10.716;2024-03-25T08:47:03;7.30;99.90
21417;DHT22;10869;52.238;10.716;2024-03-25T08:49:29;7.50;99.90
21417;DHT22;10869;52.238;10.716;2024-03-25T08:51:55;7.70;99.90
21417;DHT22;10869;52.238;10.716;2024-03-25T08:54:22;7.70;99.90
21417;DHT22;10869;52.238;10.716;2024-03-25T08:56:48;7.70;99.90
21417;DHT22;10869;52.238;10.716;2024-03-25T09:02:08;7.70;99.90
21417;DHT22;10869;52.238;10.716;2024-03-25T09:04:33;7.50;99.90
21417;DHT22;10869;52.238;10.716;2024-03-25T09:07:00;7.20;99.90
21417;DHT22;10869;52.238;10.716;2024-03-25T09:09:26;7.10;99.90
21417;DHT22;10869;52.238;10.716;2024-03-25T09:12:10;7.00;99.90
21417;DHT22;10869;52.238;10.716;2024-03-25T09:17:58;7.10;99.90
21417;DHT22;10869;52.238;10.716;2024-03-25T09:23:47;7.30;99.90
21417;DHT22;10869;52.238;10.716;2024-03-25T09:34:47;7.80;99.90
21417;DHT22;10869;52.238;10.716;2024-03-25T09:37:18;7.60;99.90
21417;DHT22;10869;52.238;10.716;2024-03-25T09:55:19;7.50;99.90
21417;DHT22;10869;52.238;10.716;2024-03-25T09:57:45;7.70;99.90
21417;DHT22;10869;52.238;10.716;2024-03-25T10:00:15;7.80;99.90
21417;DHT22;10869;52.238;10.716;2024-03-25T10:02:43;7.90;99.90
21417;DHT22;10869;52.238;10.716;2024-03-25T10:07:47;8.10;99.90
21417;DHT22;10869;52.238;10.716;2024-03-25T10:10:13;8.30;99.90
21417;DHT22;10869;52.238;10.716;2024-03-25T10:12:40;8.60;99.90
21417;DHT22;10869;52.238;10.716;2024-03-25T10:15:08;9.20;99.90
21417;DHT22;10869;52.238;10.716;2024-03-25T10:17:34;9.70;99.90
21417;DHT22;10869;52.238;10.716;2024-03-25T10:20:00;9.60;99.90
21417;DHT22;10869;52.238;10.716;2024-03-25T10:22:28;9.40;99.90
21417;DHT22;10869;52.238;10.716;2024-03-25T10:25:25;9.20;99.90
21417;DHT22;10869;52.238;10.716;2024-03-25T10:27:59;9.00;99.90
21417;DHT22;10869;52.238;10.716;2024-03-25T10:35:40;8.90;99.90
21417;DHT22;10869;52.238;10.716;2024-03-25T10:43:20;9.00;99.90
21417;DHT22;10869;52.238;10.716;2024-03-25T10:45:55;8.80;99.90
21417;DHT22;10869;52.238;10.716;2024-03-25T10:48:28;8.90;99.90
21417;DHT22;10869;52.238;10.716;2024-03-25T10:50:58;8.90;99.90
21417;DHT22;10869;52.238;10.716;2024-03-25T10:53:27;8.80;99.90
21417;DHT22;10869;52.238;10.716;2024-03-25T10:58:31;8.80;99.90
21417;DHT22;10869;52.238;10.716;2024-03-25T11:34:51;8.30;99.90
21417;DHT22;10869;52.238;10.716;2024-03-25T11:37:26;8.30;99.90
21417;DHT22;10869;52.238;10.716;2024-03-25T11:40:06;8.20;99.90
21417;DHT22;10869;52.238;10.716;2024-03-25T11:42:41;8.20;99.90
21417;DHT22;10869;52.238;10.716;2024-03-25T11:45:20;8.30;99.90
21417;DHT22;10869;52.238;10.716;2024-03-25T11:52:56;9.20;99.90
21417;DHT22;10869;52.238;10.716;2024-03-25T11:55:22;9.50;99.90
21417;DHT22;10869;52.238;10.716;2024-03-25T11:57:55;9.60;99.90
21417;DHT22;10869;52.238;10.716;2024-03-25T12:00:21;9.50;99.90
21417;DHT22;10869;52.238;10.716;2024-03-25T12:02:47;9.50;99.90
21417;DHT22;10869;52.238;10.716;2024-03-25T12:05:14;9.50;99.90
21417;DHT22;10869;52.238;10.716;2024-03-25T12:07:40;9.40;99.90
21417;DHT22;10869;52.238;10.716;2024-03-25T12:10:06;9.30;99.90
21417;DHT22;10869;52.238;10.716;2024-03-25T12:15:26;9.40;99.90
21417;DHT22;10869;52.238;10.716;2024-03-25T12:17:52;9.50;99.90
21417;DHT22;10869;52.238;10.716;2024-03-25T12:20:19;9.50;99.90
21417;DHT22;10869;52.238;10.716;2024-03-25T12:22:45;9.50;99.90
21417;DHT22;10869;52.238;10.716;2024-03-25T12:25:11;9.50;99.90
21417;DHT22;10869;52.238;10.716;2024-03-25T12:27:38;9.60;99.90
21417;DHT22;10869;52.238;10.716;2024-03-25T12:30:09;9.60;99.90
21417;DHT22;10869;52.238;10.716;2024-03-25T12:32:43;9.70;99.90
21417;DHT22;10869;52.238;10.716;2024-03-25T12:35:14;9.80;99.90
21417;DHT22;10869;52.238;10.716;2024-03-25T12:42:55;9.80;99.90
21417;DHT22;10869;52.238;10.716;2024-03-25T12:45:21;9.80;99.90
21417;DHT22;10869;52.238;10.716;2024-03-25T12:47:49;9.80;99.90
21417;DHT22;10869;52.238;10.716;2024-03-25T12:52:54;9.60;99.90
21417;DHT22;10869;52.238;10.716;2024-03-25T12:55:26;9.50;99.90
21417;DHT22;10869;52.238;10.716;2024-03-25T12:57:55;9.40;99.90
21417;DHT22;10869;52.238;10.716;2024-03-25T13:00:21;9.30;99.90
21417;DHT22;10869;52.238;10.716;2024-03-25T13:02:49;9.20;99.90
21417;DHT22;10869;52.238;10.716;2024-03-25T13:05:16;9.20;99.90
21417;DHT22;10869;52.238;10.716;2024-03-25T13:07:42;9.20;99.90
21417;DHT22;10869;52.238;10.716;2024-03-25T13:15:22;8.80;99.90
21417;DHT22;10869;52.238;10.716;2024-03-25T13:29:31;8.90;99.90
21417;DHT22;10869;52.238;10.716;2024-03-25T13:32:08;9.00;99.90
21417;DHT22;10869;52.238;10.716;2024-03-25T13:37:57;9.10;99.90
21417;DHT22;10869;52.238;10.716;2024-03-25T13:41:18;9.10;99.90
21417;DHT22;10869;52.238;10.716;2024-03-25T13:54:24;9.70;99.90
21417;DHT22;10869;52.238;10.716;2024-03-25T15:13:04;10.40;99.90
21417;DHT22;10869;52.238;10.716;2024-03-25T15:15:30;10.20;99.90
21417;DHT22;10869;52.238;10.716;2024-03-25T15:18:01;10.10;99.90
21417;DHT22;10869;52.238;10.716;2024-03-25T15:20:27;9.90;99.90
21417;DHT22;10869;52.238;10.716;2024-03-25T15:30:39;9.70;99.90
21417;DHT22;10869;52.238;10.716;2024-03-25T15:33:06;9.80;99.90
21417;DHT22;10869;52.238;10.716;2024-03-25T15:35:34;10.00;99.90
21417;DHT22;10869;52.238;10.716;2024-03-25T15:38:06;10.20;99.90
21417;DHT22;10869;52.238;10.716;2024-03-25T15:41:04;10.30;99.90
21417;DHT22;10869;52.238;10.716;2024-03-25T15:46:06;10.20;99.90
21417;DHT22;10869;52.238;10.716;2024-03-25T15:52:01;9.90;99.90
21417;DHT22;10869;52.238;10.716;2024-03-25T15:54:31;9.80;99.90
21417;DHT22;10869;52.238;10.716;2024-03-25T16:00:19;9.60;99.90
21417;DHT22;10869;52.238;10.716;2024-03-25T16:02:55;9.40;99.90
21417;DHT22;10869;52.238;10.716;2024-03-25T16:05:24;9.30;99.90
21417;DHT22;10869;52.238;10.716;2024-03-25T16:07:58;9.20;99.90
21417;DHT22;10869;52.238;10.716;2024-03-25T16:10:31;9.10;99.90
21417;DHT22;10869;52.238;10.716;2024-03-25T16:13:02;9.00;99.90
21417;DHT22;10869;52.238;10.716;2024-03-25T16:40:07;8.70;99.90
21417;DHT22;10869;52.238;10.716;2024-03-25T16:53:35;8.40;99.90
21417;DHT22;10869;52.238;10.716;2024-03-25T17:07:17;8.20;99.90
21417;DHT22;10869;52.238;10.716;2024-03-25T17:09:49;8.20;99.90
21417;DHT22;10869;52.238;10.716;2024-03-25T17:12:15;8.10;99.90
21417;DHT22;10869;52.238;10.716;2024-03-25T17:18:08;7.90;99.90
21417;DHT22;10869;52.238;10.716;2024-03-25T17:23:56;7.70;99.90
21417;DHT22;10869;52.238;10.716;2024-03-25T17:29:48;7.30;99.90
21417;DHT22;10869;52.238;10.716;2024-03-25T17:35:38;6.90;99.90
21417;DHT22;10869;52.238;10.716;2024-03-25T17:41:27;6.60;99.90
21417;DHT22;10869;52.238;10.716;2024-03-25T17:43:53;6.40;99.90
21417;DHT22;10869;52.238;10.716;2024-03-25T17:48:54;6.10;99.90
21417;DHT22;10869;52.238;10.716;2024-03-25T17:51:22;6.00;99.90
21417;DHT22;10869;52.238;10.716;2024-03-25T17:53:57;5.90;99.90
21417;DHT22;10869;52.238;10.716;2024-03-25T17:59:45;5.70;99.90
21417;DHT22;10869;52.238;10.716;2024-03-25T18:05:34;5.50;99.90
21417;DHT22;10869;52.238;10.716;2024-03-25T18:08:01;5.40;99.90
21417;DHT22;10869;52.238;10.716;2024-03-25T18:10:27;5.30;99.90
21417;DHT22;10869;52.238;10.716;2024-03-25T18:12:54;5.20;99.90
21417;DHT22;10869;52.238;10.716;2024-03-25T18:18:42;5.00;99.90
21417;DHT22;10869;52.238;10.716;2024-03-25T18:21:09;5.00;99.90
21417;DHT22;10869;52.238;10.716;2024-03-25T18:23:35;4.90;99.90
21417;DHT22;10869;52.238;10.716;2024-03-25T18:29:23;4.80;99.90
21417;DHT22;10869;52.238;10.716;2024-03-25T18:37:01;4.60;99.90
21417;DHT22;10869;52.238;10.716;2024-03-25T18:39:33;4.60;99.90
21417;DHT22;10869;52.238;10.716;2024-03-25T18:42:00;4.50;99.90
21417;DHT22;10869;52.238;10.716;2024-03-25T18:44:27;4.50;99.90
21417;DHT22;10869;52.238;10.716;2024-03-25T18:46:52;4.40;99.90
21417;DHT22;10869;52.238;10.716;2024-03-25T18:51:54;4.30;99.90
21417;DHT22;10869;52.238;10.716;2024-03-25T18:54:20;4.30;99.90
21417;DHT22;10869;52.238;10.716;2024-03-25T18:56:46;4.20;99.90
21417;DHT22;10869;52.238;10.716;2024-03-25T18:59:13;4.20;99.90
21417;DHT22;10869;52.238;10.716;2024-03-25T19:01:42;4.20;99.90
21417;DHT22;10869;52.238;10.716;2024-03-25T19:04:08;4.10;99.90
21417;DHT22;10869;52.238;10.716;2024-03-25T19:09:09;4.20;99.90
21417;DHT22;10869;52.238;10.716;2024-03-25T19:14:12;4.20;99.90
21417;DHT22;10869;52.238;10.716;2024-03-25T19:16:38;4.30;99.90
21417;DHT22;10869;52.238;10.716;2024-03-25T19:19:04;4.30;99.90
21417;DHT22;10869;52.238;10.716;2024-03-25T19:21:30;4.30;99.90
21417;DHT22;10869;52.238;10.716;2024-03-25T19:27:19;4.30;99.90
21417;DHT22;10869;52.238;10.716;2024-03-25T19:29:45;4.40;99.90
21417;DHT22;10869;52.238;10.716;2024-03-25T19:32:11;4.40;99.90
21417;DHT22;10869;52.238;10.716;2024-03-25T19:34:37;4.40;99.90
21417;DHT22;10869;52.238;10.716;2024-03-25T19:45:36;4.50;99.90
21417;DHT22;10869;52.238;10.716;2024-03-25T20:27:47;4.80;99.90
21417;DHT22;10869;52.238;10.716;2024-03-25T20:33:48;4.70;99.90
21417;DHT22;10869;52.238;10.716;2024-03-25T20:36:18;4.70;99.90
21417;DHT22;10869;52.238;10.716;2024-03-25T20:38:47;4.70;99.90
21417;DHT22;10869;52.238;10.716;2024-03-25T20:44:35;4.70;99.90
21417;DHT22;10869;52.238;10.716;2024-03-25T20:47:02;4.70;99.90
21417;DHT22;10869;52.238;10.716;2024-03-25T20:49:30;4.60;99.90
21417;DHT22;10869;52.238;10.716;2024-03-25T20:51:56;4.70;99.90
21417;DHT22;10869;52.238;10.716;2024-03-25T20:54:22;4.60;99.90
21417;DHT22;10869;52.238;10.716;2024-03-25T20:56:51;4.70;99.90
21417;DHT22;10869;52.238;10.716;2024-03-25T20:59:17;4.70;99.90
21417;DHT22;10869;52.238;10.716;2024-03-25T21:01:43;4.70;99.90
21417;DHT22;10869;52.238;10.716;2024-03-25T21:04:12;4.70;99.90
21417;DHT22;10869;52.238;10.716;2024-03-25T21:06:39;4.70;99.90
21417;DHT22;10869;52.238;10.716;2024-03-25T21:09:19;4.70;99.90
21417;DHT22;10869;52.238;10.716;2024-03-25T21:11:46;4.70;99.90
21417;DHT22;10869;52.238;10.716;2024-03-25T21:14:12;4.70;99.90
21417;DHT22;10869;52.238;10.716;2024-03-25T21:25:10;4.70;99.90
21417;DHT22;10869;52.238;10.716;2024-03-25T21:30:58;4.70;99.90
21417;DHT22;10869;52.238;10.716;2024-03-25T21:33:23;4.70;99.90
21417;DHT22;10869;52.238;10.716;2024-03-25T21:35:49;4.60;99.90
21417;DHT22;10869;52.238;10.716;2024-03-25T21:38:16;4.60;99.90
21417;DHT22;10869;52.238;10.716;2024-03-25T21:44:11;4.60;99.90
21417;DHT22;10869;52.238;10.716;2024-03-25T21:46:42;4.60;99.90
21417;DHT22;10869;52.238;10.716;2024-03-25T21:51:44;4.60;99.90
21417;DHT22;10869;52.238;10.716;2024-03-25T21:54:10;4.60;99.90
21417;DHT22;10869;52.238;10.716;2024-03-25T21:56:36;4.60;99.90
21417;DHT22;10869;52.238;10.716;2024-03-25T21:59:02;4.70;99.90
21417;DHT22;10869;52.238;10.716;2024-03-25T22:04:50;4.70;99.90
21417;DHT22;10869;52.238;10.716;2024-03-25T22:07:16;4.70;99.90
21417;DHT22;10869;52.238;10.716;2024-03-25T22:09:42;4.80;99.90
21417;DHT22;10869;52.238;10.716;2024-03-25T22:12:08;4.70;99.90
21417;DHT22;10869;52.238;10.716;2024-03-25T22:14:33;4.70;99.90
21417;DHT22;10869;52.238;10.716;2024-03-25T22:17:01;4.70;99.90
21417;DHT22;10869;52.238;10.716;2024-03-25T22:19:28;4.70;99.90
21417;DHT22;10869;52.238;10.716;2024-03-25T22:21:53;4.70;99.90
21417;DHT22;10869;52.238;10.716;2024-03-25T22:24:19;4.70;99.90
21417;DHT22;10869;52.238;10.716;2024-03-25T22:26:45;4.70;99.90
21417;DHT22;10869;52.238;10.716;2024-03-25T22:29:11;4.70;99.90
21417;DHT22;10869;52.238;10.716;2024-03-25T22:31:38;4.70;99.90
21417;DHT22;10869;52.238;10.716;2024-03-25T22:34:04;4.70;99.90
21417;DHT22;10869;52.238;10.716;2024-03-25T22:36:30;4.70;99.90
21417;DHT22;10869;52.238;10.716;2024-03-25T22:38:56;4.70;99.90
21417;DHT22;10869;52.238;10.716;2024-03-25T22:41:22;4.70;99.90
21417;DHT22;10869;52.238;10.716;2024-03-25T22:43:48;4.70;99.90
21417;DHT22;10869;52.238;10.716;2024-03-25T22:46:14;4.70;99.90
21417;DHT22;10869;52.238;10.716;2024-03-25T22:48:40;4.70;99.90
21417;DHT22;10869;52.238;10.716;2024-03-25T22:51:06;4.70;99.90
21417;DHT22;10869;52.238;10.716;2024-03-25T22:53:33;4.60;99.90
21417;DHT22;10869;52.238;10.716;2024-03-25T22:56:06;4.60;99.90
21417;DHT22;10869;52.238;10.716;2024-03-25T22:58:36;4.60;99.90
21417;DHT22;10869;52.238;10.716;2024-03-25T23:01:06;4.50;99.90
21417;DHT22;10869;52.238;10.716;2024-03-25T23:03:32;4.50;99.90
21417;DHT22;10869;52.238;10.716;2024-03-25T23:06:02;4.60;99.90
21417;DHT22;10869;52.238;10.716;2024-03-25T23:08:29;4.50;99.90
21417;DHT22;10869;52.238;10.716;2024-03-25T23:10:55;4.50;99.90
21417;DHT22;10869;52.238;10.716;2024-03-25T23:13:21;4.50;99.90
21417;DHT22;10869;52.238;10.716;2024-03-25T23:15:47;4.50;99.90
21417;DHT22;10869;52.238;10.716;2024-03-25T23:18:14;4.50;99.90
21417;DHT22;10869;52.238;10.716;2024-03-25T23:20:41;4.50;99.90
21417;DHT22;10869;52.238;10.716;2024-03-25T23:23:08;4.50;99.90
21417;DHT22;10869;52.238;10.716;2024-03-25T23:25:42;4.50;99.90
21417;DHT22;10869;52.238;10.716;2024-03-25T23:28:10;4.50;99.90
21417;DHT22;10869;52.238;10.716;2024-03-25T23:30:37;4.50;99.90
21417;DHT22;10869;52.238;10.716;2024-03-25T23:33:03;4.50;99.90
21417;DHT22;10869;52.238;10.716;2024-03-25T23:35:35;4.50;99.90
21417;DHT22;10869;52.238;10.716;2024-03-25T23:38:03;4.50;99.90
21417;DHT22;10869;52.238;10.716;2024-03-25T23:40:29;4.60;99.90
21417;DHT22;10869;52.238;10.716;2024-03-25T23:42:56;4.50;99.90
21417;DHT22;10869;52.238;10.716;2024-03-25T23:45:23;4.50;99.90
21417;DHT22;10869;52.238;10.716;2024-03-25T23:47:53;4.50;99.90
21417;DHT22;10869;52.238;10.716;2024-03-25T23:50:20;4.50;99.90
21417;DHT22;10869;52.238;10.716;2024-03-25T23:52:46;4.50;99.90
21417;DHT22;10869;52.238;10.716;2024-03-25T23:55:13;4.40;99.90